Time;durP1;ratioP1;P1;durP2;ratioP2;P2;SDS_P1;SDS_P2;PMS_P1;PMS_P2;Temp;Humidity;BMP_temperature;BMP_pressure;BME280_temperature;BME280_humidity;BME280_pressure;Samples;Min_cycle;Max_cycle;Signal;HPM_P1;HPM_P2
2022/06/17 00:02:10;;;;;;;14.93;8.87;;;;;;;-145.18;100.00;46545.16;4952665;29;20046;-85
2022/06/17 00:04:36;;;;;;;11.97;8.40;;;;;;;-145.18;100.00;46547.09;4935484;29;20060;-85
2022/06/17 00:07:04;;;;;;;12.53;8.03;;;;;;;-145.18;100.00;46556.88;4952280;29;20035;-84
2022/06/17 00:09:34;;;;;;;13.57;9.30;;;;;;;-145.18;100.00;46543.19;4952831;29;20035;-84
2022/06/17 00:12:00;;;;;;;14.73;9.20;;;;;;;-145.18;100.00;46554.91;4952293;29;20096;-85
2022/06/17 00:14:32;;;;;;;13.87;9.37;;;;;;;-145.18;100.00;46562.72;4953003;29;20511;-82
2022/06/17 00:17:02;;;;;;;16.20;9.43;;;;;;;-145.18;100.00;46560.78;4952713;29;20030;-84
2022/06/17 00:19:27;;;;;;;12.20;8.90;;;;;;;-145.18;100.00;46558.81;4952446;29;20058;-83
2022/06/17 00:21:53;;;;;;;14.53;9.20;;;;;;;-145.18;100.00;46558.81;4952248;28;20031;-81
2022/06/17 00:24:24;;;;;;;13.37;8.83;;;;;;;-145.18;100.00;46535.38;4952650;29;20122;-81
2022/06/17 00:26:51;;;;;;;12.60;8.57;;;;;;;-145.18;100.00;46549.06;4952400;29;20038;-83
2022/06/17 00:29:20;;;;;;;11.83;9.00;;;;;;;-145.18;100.00;46541.25;4952211;29;20034;-85
2022/06/17 00:31:45;;;;;;;11.53;8.47;;;;;;;-145.18;100.00;46531.47;4951812;29;20098;-84
2022/06/17 00:34:11;;;;;;;17.00;8.83;;;;;;;-145.18;100.00;46533.44;4951329;29;20555;-83
2022/06/17 00:36:37;;;;;;;15.40;9.30;;;;;;;-145.18;100.00;46527.56;4953000;29;20031;-84
2022/06/17 00:39:11;;;;;;;16.83;9.20;;;;;;;-145.18;100.00;46551.00;4952555;29;20037;-82
2022/06/17 00:41:38;;;;;;;14.60;9.07;;;;;;;-145.18;100.00;46543.19;4952000;29;20039;-84
2022/06/17 00:44:38;;;;;;;18.07;9.23;;;;;;;-145.18;100.00;46523.66;4953769;28;20035;-82
2022/06/17 00:47:31;;;;;;;13.57;8.67;;;;;;;-145.18;100.00;46543.19;4958838;29;20067;-83
2022/06/17 00:50:15;;;;;;;11.20;8.57;;;;;;;-145.18;100.00;46543.19;4959122;28;20168;-83
2022/06/17 00:52:52;;;;;;;13.17;7.40;;;;;;;-145.18;100.00;46535.38;4958034;28;20069;-83
2022/06/17 00:55:37;;;;;;;9.33;6.57;;;;;;;-145.18;100.00;46551.00;4958980;29;20054;-83
2022/06/17 00:58:12;;;;;;;14.17;6.90;;;;;;;-145.18;100.00;46543.19;4958479;29;20035;-84
2022/06/17 01:00:38;;;;;;;11.00;6.75;;;;;;;-145.18;100.00;46558.81;4959424;28;20436;-83
2022/06/17 01:03:10;;;;;;;11.13;7.10;;;;;;;-145.18;100.00;46556.88;4958169;28;20039;-83
2022/06/17 01:06:05;;;;;;;9.80;7.57;;;;;;;-145.18;100.00;46543.19;4958955;29;20047;-82
2022/06/17 01:11:28;;;;;;;13.05;8.40;;;;;;;-145.18;100.00;46537.34;4959014;29;20042;-85
2022/06/17 01:13:54;;;;;;;10.27;7.60;;;;;;;-145.18;100.00;46543.19;4957973;28;20032;-82
2022/06/17 01:16:23;;;;;;;14.33;7.40;;;;;;;-145.18;100.00;46564.69;4958426;28;20039;-84
2022/06/17 01:18:52;;;;;;;12.03;7.27;;;;;;;-145.18;100.00;46547.09;4958154;28;20461;-83
2022/06/17 01:21:43;;;;;;;12.97;6.53;;;;;;;-145.18;100.00;46545.16;4958636;29;20050;-85
2022/06/17 01:24:10;;;;;;;13.10;7.43;;;;;;;-145.18;100.00;46552.97;4958543;28;20035;-83
2022/06/17 01:26:35;;;;;;;11.67;7.30;;;;;;;-145.18;100.00;46552.97;4958323;28;20601;-86
2022/06/17 01:29:01;;;;;;;13.73;7.83;;;;;;;-145.18;100.00;46541.25;4958260;28;20061;-85
2022/06/17 01:31:27;;;;;;;12.03;7.90;;;;;;;-145.18;100.00;46545.16;4958129;28;20035;-84
2022/06/17 01:33:53;;;;;;;9.07;6.63;;;;;;;-145.18;100.00;46547.09;4957982;29;20030;-83
2022/06/17 01:36:25;;;;;;;11.30;7.50;;;;;;;-145.18;100.00;46539.28;4958398;29;20031;-85
2022/06/17 01:38:53;;;;;;;10.57;6.97;;;;;;;-145.18;100.00;46539.28;4958126;29;20042;-84
2022/06/17 01:41:23;;;;;;;11.53;7.27;;;;;;;-145.18;100.00;46541.25;4958238;29;20078;-84
2022/06/17 01:43:55;;;;;;;12.63;7.03;;;;;;;-145.18;100.00;46543.19;4958384;28;20081;-83
2022/06/17 01:46:34;;;;;;;9.53;6.67;;;;;;;-145.18;100.00;46547.09;4958915;29;20035;-86
2022/06/17 01:49:09;;;;;;;10.43;7.23;;;;;;;-145.18;100.00;46547.09;4958249;29;20039;-83
2022/06/17 01:51:40;;;;;;;11.88;7.72;;;;;;;-145.18;100.00;46535.38;4958027;28;20031;-84
2022/06/17 01:54:09;;;;;;;12.67;7.77;;;;;;;-145.18;100.00;46552.97;4958011;29;20034;-83
2022/06/17 01:56:38;;;;;;;13.10;8.17;;;;;;;-145.18;100.00;46547.09;4954744;28;20039;-83
2022/06/17 01:59:12;;;;;;;11.80;8.20;;;;;;;-145.18;100.00;46535.38;4954986;28;20032;-82
2022/06/17 02:04:11;;;;;;;10.60;7.50;;;;;;;-145.18;100.00;46543.19;4976559;23;20113;-83
2022/06/17 02:06:57;;;;;;;10.70;6.90;;;;;;;-145.18;100.00;46537.34;4955273;29;20047;-83
2022/06/17 02:09:22;;;;;;;11.23;7.88;;;;;;;-145.18;100.00;46543.19;4955051;29;20039;-84
2022/06/17 02:11:49;;;;;;;16.67;7.70;;;;;;;-145.18;100.00;46549.06;4954489;29;20465;-82
2022/06/17 02:14:15;;;;;;;11.23;7.57;;;;;;;-145.18;100.00;46537.34;4954985;29;20051;-83
2022/06/17 02:16:42;;;;;;;10.43;7.23;;;;;;;-145.18;100.00;46539.28;4954775;29;20039;-83
2022/06/17 02:19:09;;;;;;;13.70;7.53;;;;;;;-145.18;100.00;46529.53;4954701;29;20467;-83
2022/06/17 02:21:52;;;;;;;12.27;8.00;;;;;;;-145.18;100.00;46535.38;4955046;29;20042;-80
2022/06/17 02:24:19;;;;;;;12.27;7.30;;;;;;;-145.18;100.00;46543.19;4954954;29;20031;-83
2022/06/17 02:26:46;;;;;;;15.53;8.57;;;;;;;-145.18;100.00;46537.34;4954523;29;20031;-81
2022/06/17 02:29:14;;;;;;;15.00;8.80;;;;;;;-145.18;100.00;46539.28;4937655;29;20027;-80
2022/06/17 02:31:41;;;;;;;14.40;9.03;;;;;;;-145.18;100.00;46535.38;4954580;29;20124;-82
2022/06/17 02:34:10;;;;;;;12.30;7.83;;;;;;;-145.18;100.00;46545.16;4937096;29;20109;-82
2022/06/17 02:37:01;;;;;;;13.60;7.73;;;;;;;-145.18;100.00;46539.28;4954927;29;20031;-84
2022/06/17 02:39:28;;;;;;;15.37;8.77;;;;;;;-145.18;100.00;46535.38;4946538;29;20049;-81
2022/06/17 02:41:54;;;;;;;16.20;8.37;;;;;;;-145.18;100.00;46535.38;4954214;29;20038;-82
2022/06/17 02:44:24;;;;;;;12.37;8.27;;;;;;;-145.18;100.00;46535.38;4954484;29;20046;-81
2022/06/17 02:46:53;;;;;;;12.17;8.20;;;;;;;-145.18;100.00;46535.38;4953913;29;20365;-82
2022/06/17 02:49:24;;;;;;;16.70;8.20;;;;;;;-145.18;100.00;46533.44;4954376;29;20480;-81
2022/06/17 02:51:50;;;;;;;13.60;8.97;;;;;;;-145.18;100.00;46535.38;4953801;29;20035;-81
2022/06/17 02:54:24;;;;;;;9.93;8.10;;;;;;;-145.18;100.00;46525.63;4953915;29;20102;-82
2022/06/17 02:56:53;;;;;;;22.53;8.80;;;;;;;-145.18;100.00;46535.38;4953842;29;20479;-82
2022/06/17 02:59:25;;;;;;;14.10;9.00;;;;;;;-145.18;100.00;46543.19;4953968;29;20487;-81
2022/06/17 03:01:57;;;;;;;14.93;8.37;;;;;;;-145.18;100.00;46543.19;4962087;28;20077;-83
2022/06/17 03:04:26;;;;;;;13.50;8.17;;;;;;;-145.18;100.00;46541.25;4973160;28;20058;-83
2022/06/17 03:06:52;;;;;;;17.30;9.03;;;;;;;-145.18;100.00;46545.16;4971681;28;20060;-84
2022/06/17 03:09:28;;;;;;;13.13;8.27;;;;;;;-145.18;100.00;46543.19;4972350;28;20570;-80
2022/06/17 03:11:58;;;;;;;;;;;;;;;-145.18;100.00;46541.25;4973053;28;20030;-84
2022/06/17 03:14:27;;;;;;;12.73;9.10;;;;;;;-145.18;100.00;46539.28;4972680;28;19921;-83
2022/06/17 03:16:57;;;;;;;11.27;8.83;;;;;;;-145.18;100.00;46541.25;4972304;28;20031;-81
2022/06/17 03:19:25;;;;;;;12.73;9.03;;;;;;;-145.18;100.00;46529.53;4972665;28;20491;-82
2022/06/17 03:21:50;;;;;;;14.33;9.50;;;;;;;-145.18;100.00;46539.28;4972090;28;20467;-83
2022/06/17 03:24:55;;;;;;;15.57;9.40;;;;;;;-145.18;100.00;46535.38;4972502;28;20037;-83
2022/06/17 03:27:31;;;;;;;19.43;9.13;;;;;;;-145.18;100.00;46531.47;4972177;28;20039;-84
2022/06/17 03:30:00;;;;;;;10.43;8.80;;;;;;;-145.18;100.00;46541.25;4972218;28;20117;-83
2022/06/17 03:32:31;;;;;;;14.93;9.40;;;;;;;-145.18;100.00;46547.09;4972277;28;20534;-84
2022/06/17 03:34:56;;;;;;;14.53;9.47;;;;;;;-145.18;100.00;46539.28;4969118;28;20026;-83
2022/06/17 03:37:43;;;;;;;18.83;9.53;;;;;;;-145.18;100.00;46539.28;4962125;28;20039;-84
2022/06/17 03:40:18;;;;;;;18.33;9.23;;;;;;;-145.18;100.00;46535.38;4963777;28;20038;-83
2022/06/17 03:43:05;;;;;;;12.07;9.30;;;;;;;-145.18;100.00;46535.38;4969211;28;20038;-83
2022/06/17 03:45:44;;;;;;;11.57;8.90;;;;;;;-145.18;100.00;46535.38;4971093;28;20123;-82
2022/06/17 03:48:16;;;;;;;13.97;10.17;;;;;;;-145.18;100.00;46543.19;4971781;28;20037;-82
2022/06/17 03:50:45;;;;;;;13.80;9.70;;;;;;;-145.18;100.00;46543.19;4984011;28;20042;-85
2022/06/17 03:53:31;;;;;;;15.73;10.13;;;;;;;-145.18;100.00;46533.44;4990930;28;20117;-83
2022/06/17 03:55:58;;;;;;;;;;;;;;;-145.18;100.00;46533.44;4985242;28;20023;-82
2022/06/17 03:58:24;;;;;;;12.13;9.50;;;;;;;-145.18;100.00;46529.53;4956863;28;19958;-83
2022/06/17 04:01:16;;;;;;;13.27;9.93;;;;;;;-145.18;100.00;46545.16;4970290;28;20113;-84
2022/06/17 04:03:46;;;;;;;15.20;10.20;;;;;;;-145.18;100.00;46539.28;4959551;28;20134;-85
2022/06/17 04:06:17;;;;;;;15.77;9.63;;;;;;;-145.18;100.00;46535.38;4991619;28;20042;-84
2022/06/17 04:08:55;;;;;;;13.00;9.80;;;;;;;-145.18;100.00;46535.38;4990899;28;20037;-83
2022/06/17 04:11:23;;;;;;;13.63;10.20;;;;;;;-145.18;100.00;46535.38;4990868;28;20482;-81
2022/06/17 04:13:52;;;;;;;17.30;9.97;;;;;;;-145.18;100.00;46541.25;4973552;28;20030;-83
2022/06/17 04:16:25;;;;;;;13.47;9.37;;;;;;;-145.18;100.00;46535.38;4991644;28;20034;-84
2022/06/17 04:18:50;;;;;;;17.53;10.03;;;;;;;-145.18;100.00;46535.38;4989459;28;20108;-84
2022/06/17 04:21:16;;;;;;;12.63;10.50;;;;;;;-145.18;100.00;46535.38;4990682;28;20117;-83
2022/06/17 04:23:42;;;;;;;18.07;10.83;;;;;;;-145.18;100.00;46531.47;4971004;28;20035;-83
2022/06/17 04:26:21;;;;;;;15.37;9.57;;;;;;;-145.18;100.00;46537.34;4978330;28;20069;-84
2022/06/17 04:29:11;;;;;;;14.20;11.17;;;;;;;-145.18;100.00;46537.34;4990554;28;20030;-84
2022/06/17 04:31:37;;;;;;;19.13;10.93;;;;;;;-145.18;100.00;46535.38;4970563;28;20039;-86
2022/06/17 04:34:10;;;;;;;18.30;10.03;;;;;;;-145.18;100.00;46533.44;4970788;28;20035;-84
2022/06/17 04:36:40;;;;;;;15.40;10.77;;;;;;;-145.18;100.00;46535.38;4971356;28;20034;-82
2022/06/17 04:39:33;;;;;;;19.90;9.80;;;;;;;-145.18;100.00;46537.34;4971137;28;20030;-79
2022/06/17 04:42:02;;;;;;;14.17;10.20;;;;;;;-145.18;100.00;46539.28;4971484;28;20403;-84
2022/06/17 04:44:28;;;;;;;13.03;9.87;;;;;;;-145.18;100.00;46537.34;4971234;28;20038;-82
2022/06/17 04:46:59;;;;;;;14.37;10.07;;;;;;;-145.18;100.00;46533.44;4968616;28;20023;-83
2022/06/17 04:49:28;;;;;;;14.90;9.47;;;;;;;-145.18;100.00;46537.34;4971944;28;20088;-81
2022/06/17 04:51:59;;;;;;;13.40;10.03;;;;;;;-145.18;100.00;46535.38;4970989;28;20134;-85
2022/06/17 04:54:26;;;;;;;17.50;10.73;;;;;;;-145.18;100.00;46531.47;4971005;28;20031;-84
2022/06/17 04:56:54;;;;;;;17.23;10.47;;;;;;;-145.18;100.00;46533.44;4972028;28;20081;-85
2022/06/17 04:59:22;;;;;;;19.03;11.23;;;;;;;-145.18;100.00;46545.16;4979632;28;20047;-81
2022/06/17 05:01:49;;;;;;;16.57;11.47;;;;;;;-145.18;100.00;46533.44;4971156;28;20126;-83
2022/06/17 05:04:16;;;;;;;18.87;10.73;;;;;;;-145.18;100.00;46531.47;4971080;28;20054;-83
2022/06/17 05:06:42;;;;;;;15.10;10.30;;;;;;;-145.18;100.00;46539.28;4971446;28;20123;-82
2022/06/17 05:09:34;;;;;;;13.93;11.37;;;;;;;-145.18;100.00;46541.25;4970920;28;20035;-83
2022/06/17 05:12:06;;;;;;;18.07;10.73;;;;;;;-145.18;100.00;46541.25;4971879;28;20384;-83
2022/06/17 05:14:48;;;;;;;19.57;11.77;;;;;;;-145.18;100.00;46535.38;4970637;28;20035;-84
2022/06/17 05:17:13;;;;;;;19.00;11.00;;;;;;;-145.18;100.00;46531.47;4971112;28;20031;-84
2022/06/17 05:19:38;;;;;;;19.37;11.13;;;;;;;-145.18;100.00;46531.47;4971364;28;20463;-83
2022/06/17 05:22:13;;;;;;;16.43;11.07;;;;;;;-145.18;100.00;46535.38;4948537;28;20494;-82
2022/06/17 05:24:38;;;;;;;13.27;11.10;;;;;;;-145.18;100.00;46537.34;4957935;28;20026;-84
2022/06/17 05:27:04;;;;;;;16.00;10.50;;;;;;;-145.18;100.00;46535.38;4961599;28;20066;-85
2022/06/17 05:29:29;;;;;;;15.20;10.57;;;;;;;-145.18;100.00;46533.44;4958267;28;20035;-83
2022/06/17 05:31:55;;;;;;;17.23;11.00;;;;;;;-145.18;100.00;46539.28;4964183;28;20023;-84
2022/06/17 05:34:20;;;;;;;18.07;10.67;;;;;;;-145.18;100.00;46545.16;4960553;28;20598;-83
2022/06/17 05:36:45;;;;;;;16.97;10.50;;;;;;;-145.18;100.00;46537.34;4954973;29;20164;-82
2022/06/17 05:39:11;;;;;;;17.67;11.87;;;;;;;-145.18;100.00;46531.47;4954319;29;20495;-83
2022/06/17 05:41:36;;;;;;;19.40;12.00;;;;;;;-145.18;100.00;46531.47;4960546;28;20066;-84
2022/06/17 05:44:02;;;;;;;16.00;11.17;;;;;;;-145.18;100.00;46529.53;4973735;28;20046;-82
2022/06/17 05:46:28;;;;;;;20.77;11.57;;;;;;;-145.18;100.00;46529.53;4974425;28;20043;-82
2022/06/17 05:48:53;;;;;;;13.63;10.27;;;;;;;-145.18;100.00;46531.47;4974004;28;20050;-83
2022/06/17 05:51:19;;;;;;;16.10;11.30;;;;;;;-145.18;100.00;46529.53;4956972;28;20068;-85
2022/06/17 05:53:44;;;;;;;16.07;10.83;;;;;;;-145.18;100.00;46529.53;4973733;28;20122;-86
2022/06/17 05:56:10;;;;;;;19.20;12.50;;;;;;;-145.18;100.00;46535.38;4970342;28;20031;-83
2022/06/17 05:58:35;;;;;;;17.60;12.20;;;;;;;-145.18;100.00;46533.44;4954463;29;20042;-83
2022/06/17 06:01:01;;;;;;;15.73;10.83;;;;;;;-145.18;100.00;46531.47;4953986;29;20091;-85
2022/06/17 06:04:31;;;;;;;18.40;11.47;;;;;;;-145.18;100.00;46537.34;4953446;29;20050;-84
2022/06/17 06:08:23;;;;;;;14.00;10.83;;;;;;;-145.18;100.00;46535.38;4954343;29;20167;-83
2022/06/17 06:15:46;;;;;;;21.80;10.40;;;;;;;-145.18;100.00;46521.72;4953045;29;20058;-85
2022/06/17 06:19:38;;;;;;;17.23;10.30;;;;;;;-145.18;100.00;46537.34;4952656;29;20522;-85
2022/06/17 06:30:42;;;;;;;14.47;11.23;;;;;;;-145.18;100.00;46552.97;4953613;29;20042;-85
2022/06/17 06:34:38;;;;;;;15.10;11.10;;;;;;;-145.18;100.00;46556.88;4953734;29;20563;-84
2022/06/17 06:38:29;;;;;;;13.87;10.30;;;;;;;-145.18;100.00;46554.91;4954153;29;20039;-83
2022/06/17 06:42:20;;;;;;;14.20;11.10;;;;;;;-145.18;100.00;46554.91;4955617;28;20031;-84
2022/06/17 06:46:17;;;;;;;18.73;10.43;;;;;;;-145.18;100.00;46570.53;4931277;29;20055;-84
2022/06/17 06:50:10;;;;;;;21.13;10.50;;;;;;;-145.18;100.00;46590.06;4931297;29;20039;-86
2022/06/17 06:54:01;;;;;;;14.33;10.93;;;;;;;-145.18;100.00;46593.97;4931355;29;20031;-86
2022/06/17 06:57:58;;;;;;;14.80;10.70;;;;;;;-145.18;100.00;46554.91;4932232;29;20147;-84
2022/06/17 07:01:54;;;;;;;14.33;9.70;;;;;;;-145.18;100.00;46629.13;4931962;29;20134;-84
